createdAt,value
2018-10-06T00:00:23.042Z,14.06
2018-10-06T00:01:23.028Z,14.17
2018-10-06T00:02:23.043Z,14.10
2018-10-06T00:03:23.010Z,14.12
2018-10-06T00:04:22.993Z,14.12
2018-10-06T00:05:22.984Z,14.14
2018-10-06T00:06:22.975Z,14.12
2018-10-06T00:07:22.956Z,14.16
2018-10-06T00:08:22.973Z,14.07
2018-10-06T00:09:22.938Z,14.12
2018-10-06T00:10:22.922Z,13.96
2018-10-06T00:11:22.915Z,14.10
2018-10-06T00:12:22.902Z,14.14
2018-10-06T00:13:22.888Z,14.13
2018-10-06T00:14:22.909Z,14.09
2018-10-06T00:15:22.864Z,14.12
2018-10-06T00:16:22.858Z,14.12
2018-10-06T00:17:22.843Z,14.10
2018-10-06T00:18:22.834Z,14.13
2018-10-06T00:19:22.815Z,14.02
2018-10-06T00:20:22.838Z,13.88
2018-10-06T00:21:22.795Z,13.94
2018-10-06T00:22:22.789Z,14.04
2018-10-06T00:23:22.776Z,13.96
2018-10-06T00:24:22.760Z,13.89
2018-10-06T00:25:22.753Z,13.81
2018-10-06T00:26:22.761Z,13.79
2018-10-06T00:27:22.725Z,13.73
2018-10-06T00:28:22.719Z,13.83
2018-10-06T00:29:22.700Z,13.77
2018-10-06T00:30:22.696Z,13.71
2018-10-06T00:31:22.699Z,13.61
2018-10-06T00:32:22.670Z,13.58
2018-10-06T00:33:22.661Z,13.54
2018-10-06T00:34:22.639Z,13.46
2018-10-06T00:35:22.637Z,13.38
2018-10-06T00:36:22.655Z,13.43
2018-10-06T00:37:22.605Z,13.54
2018-10-06T00:38:22.595Z,13.41
2018-10-06T00:39:22.581Z,13.61
2018-10-06T00:40:22.578Z,13.65
2018-10-06T00:41:22.558Z,13.71
2018-10-06T00:42:22.578Z,13.52
2018-10-06T00:43:22.540Z,13.54
2018-10-06T00:44:22.522Z,13.61
2018-10-06T00:45:22.520Z,13.49
2018-10-06T00:46:22.499Z,13.47
2018-10-06T00:47:22.594Z,13.51
2018-10-06T00:48:22.510Z,13.55
2018-10-06T00:49:22.471Z,13.46
2018-10-06T00:50:22.495Z,13.41
2018-10-06T00:51:22.441Z,13.37
2018-10-06T00:52:22.436Z,13.43
2018-10-06T00:53:22.420Z,13.40
2018-10-06T00:54:22.437Z,13.43
2018-10-06T00:55:22.402Z,13.38
2018-10-06T00:56:22.383Z,13.37
2018-10-06T00:57:22.380Z,13.40
2018-10-06T00:58:22.365Z,13.41
2018-10-06T00:59:22.352Z,13.47
2018-10-06T01:00:22.378Z,13.25
2018-10-06T01:01:22.326Z,13.40
2018-10-06T01:02:22.334Z,13.40
2018-10-06T01:03:22.306Z,13.30
2018-10-06T01:04:22.296Z,13.38
2018-10-06T01:05:22.284Z,13.30
2018-10-06T01:06:22.313Z,13.30
2018-10-06T01:07:22.264Z,13.36
2018-10-06T01:08:22.246Z,13.30
2018-10-06T01:09:22.237Z,13.25
2018-10-06T01:10:22.230Z,13.14
2018-10-06T01:11:22.207Z,13.18
2018-10-06T01:12:22.227Z,13.00
2018-10-06T01:13:22.186Z,12.97
2018-10-06T01:14:22.176Z,13.00
2018-10-06T01:15:22.169Z,13.03
2018-10-06T01:16:22.178Z,12.89
2018-10-06T01:17:22.148Z,12.88
2018-10-06T01:18:22.132Z,12.99
2018-10-06T01:19:22.120Z,12.87
2018-10-06T01:20:22.118Z,12.89
2018-10-06T01:21:22.104Z,12.89
2018-10-06T01:22:22.119Z,12.97
2018-10-06T01:23:22.069Z,12.95
2018-10-06T01:24:22.062Z,12.99
2018-10-06T01:25:22.050Z,12.87
2018-10-06T01:26:22.038Z,12.82
2018-10-06T01:27:22.028Z,12.96
2018-10-06T01:28:22.039Z,12.82
2018-10-06T01:29:22.003Z,12.75
2018-10-06T01:30:21.987Z,12.82
2018-10-06T01:31:21.984Z,12.75
2018-10-06T01:32:21.967Z,12.56
2018-10-06T01:33:21.980Z,12.70
2018-10-06T01:34:21.949Z,12.71
2018-10-06T01:35:21.929Z,12.62
2018-10-06T01:36:21.923Z,12.57
2018-10-06T01:37:21.914Z,12.57
2018-10-06T01:38:21.924Z,12.62
2018-10-06T01:39:21.894Z,12.57
2018-10-06T01:40:21.879Z,12.38
2018-10-06T01:41:21.859Z,12.38
2018-10-06T01:42:21.851Z,12.46
2018-10-06T01:43:21.834Z,12.39
2018-10-06T01:44:21.868Z,12.41
2018-10-06T01:45:21.813Z,12.29
2018-10-06T01:46:21.811Z,12.34
2018-10-06T01:47:21.789Z,12.34
2018-10-06T01:48:21.776Z,12.38
2018-10-06T01:49:21.775Z,12.52
2018-10-06T01:50:21.776Z,12.34
2018-10-06T01:51:21.752Z,12.33
2018-10-06T01:52:21.731Z,12.41
2018-10-06T01:53:21.728Z,12.21
2018-10-06T01:54:21.708Z,12.37
2018-10-06T01:55:21.736Z,12.56
2018-10-06T01:56:21.693Z,12.48
2018-10-06T01:57:21.673Z,12.48
2018-10-06T01:58:21.671Z,12.49
2018-10-06T01:59:21.649Z,12.54
2018-10-06T02:00:21.641Z,12.51
2018-10-06T02:01:21.654Z,12.49
2018-10-06T02:02:21.617Z,12.48
2018-10-06T02:03:21.602Z,12.41
2018-10-06T02:04:21.598Z,12.56
2018-10-06T02:05:21.590Z,12.48
2018-10-06T02:06:21.596Z,12.62
2018-10-06T02:07:21.561Z,12.64
2018-10-06T02:08:21.556Z,12.54
2018-10-06T02:09:21.532Z,12.54
2018-10-06T02:10:21.532Z,12.59
2018-10-06T02:11:21.541Z,12.48
2018-10-06T02:12:21.497Z,12.57
2018-10-06T02:13:21.494Z,12.56
2018-10-06T02:14:21.474Z,12.56
2018-10-06T02:15:21.473Z,12.71
2018-10-06T02:16:21.457Z,12.70
2018-10-06T02:17:21.476Z,12.77
2018-10-06T02:18:21.434Z,12.70
2018-10-06T02:19:21.425Z,12.66
2018-10-06T02:20:21.405Z,12.56
2018-10-06T02:21:21.394Z,12.63
2018-10-06T02:22:21.385Z,12.63
2018-10-06T02:23:21.398Z,12.54
2018-10-06T02:24:21.358Z,12.54
2018-10-06T02:25:21.355Z,12.49
2018-10-06T02:26:21.347Z,12.54
2018-10-06T02:27:21.328Z,12.46
2018-10-06T02:28:21.346Z,12.37
2018-10-06T02:29:21.299Z,12.44
2018-10-06T02:30:21.292Z,12.33
2018-10-06T02:31:21.285Z,12.39
2018-10-06T02:32:21.268Z,12.21
2018-10-06T02:33:21.254Z,12.37
2018-10-06T02:34:21.278Z,12.27
2018-10-06T02:35:21.237Z,12.31
2018-10-06T02:36:21.222Z,12.31
2018-10-06T02:37:21.219Z,12.23
2018-10-06T02:38:21.196Z,12.20
2018-10-06T02:39:21.186Z,12.26
2018-10-06T02:40:21.203Z,12.27
2018-10-06T02:41:21.161Z,12.34
2018-10-06T02:42:21.154Z,12.34
2018-10-06T02:43:21.148Z,12.29
2018-10-06T02:44:21.127Z,12.45
2018-10-06T02:45:21.155Z,12.37
2018-10-06T02:46:21.109Z,12.37
2018-10-06T02:47:21.095Z,12.29
2018-10-06T02:48:21.086Z,12.16
2018-10-06T02:49:21.074Z,12.30
2018-10-06T02:50:21.064Z,12.21
2018-10-06T02:51:21.078Z,12.30
2018-10-06T02:52:21.036Z,12.27
2018-10-06T02:53:21.021Z,12.27
2018-10-06T02:54:21.020Z,12.24
2018-10-06T02:55:21.005Z,12.24
2018-10-06T02:56:20.993Z,12.26
2018-10-06T02:57:21.008Z,12.27
2018-10-06T02:58:20.970Z,12.33
2018-10-06T02:59:20.956Z,12.34
2018-10-06T03:00:20.949Z,12.31
2018-10-06T03:01:20.935Z,12.29
2018-10-06T03:02:20.922Z,12.42
2018-10-06T03:03:20.943Z,12.41
2018-10-06T03:04:20.898Z,12.57
2018-10-06T03:05:20.889Z,12.48
2018-10-06T03:06:20.876Z,12.54
2018-10-06T03:07:20.861Z,12.52
2018-10-06T03:08:20.854Z,12.63
2018-10-06T03:09:20.875Z,12.49
2018-10-06T03:10:20.835Z,12.49
2018-10-06T03:11:20.815Z,12.51
2018-10-06T03:12:20.804Z,12.45
2018-10-06T03:13:20.794Z,12.42
2018-10-06T03:14:20.786Z,12.48
2018-10-06T03:15:20.796Z,12.45
2018-10-06T03:16:20.760Z,12.46
2018-10-06T03:17:20.746Z,12.30
2018-10-06T03:18:20.733Z,12.16
2018-10-06T03:19:20.729Z,12.27
2018-10-06T03:20:20.715Z,12.23
2018-10-06T03:21:20.729Z,12.06
2018-10-06T03:22:20.691Z,12.09
2018-10-06T03:23:20.681Z,11.96
2018-10-06T03:24:20.664Z,12.02
2018-10-06T03:25:20.659Z,12.08
2018-10-06T03:26:20.640Z,11.97
2018-10-06T03:27:20.662Z,11.97
2018-10-06T03:28:20.622Z,11.86
2018-10-06T03:29:20.605Z,11.82
2018-10-06T03:30:20.594Z,11.78
2018-10-06T03:31:20.590Z,11.70
2018-10-06T03:32:20.575Z,11.71
2018-10-06T03:33:20.594Z,11.74
2018-10-06T03:34:20.556Z,11.77
2018-10-06T03:35:20.537Z,11.82
2018-10-06T03:36:20.527Z,11.61
2018-10-06T03:37:20.518Z,11.68
2018-10-06T03:38:20.506Z,11.61
2018-10-06T03:39:20.524Z,11.68
2018-10-06T03:40:20.481Z,11.67
2018-10-06T03:41:20.472Z,11.61
2018-10-06T03:42:20.450Z,11.52
2018-10-06T03:43:20.443Z,11.47
2018-10-06T03:44:20.438Z,11.46
2018-10-06T03:45:20.439Z,11.49
2018-10-06T03:46:20.417Z,11.52
2018-10-06T03:47:20.394Z,11.52
2018-10-06T03:48:20.389Z,11.47
2018-10-06T03:49:20.387Z,11.52
2018-10-06T03:50:20.382Z,11.50
2018-10-06T03:51:20.356Z,11.52
2018-10-06T03:52:20.341Z,11.46
2018-10-06T03:53:20.329Z,11.46
2018-10-06T03:54:20.312Z,11.53
2018-10-06T03:55:20.328Z,11.44
2018-10-06T03:56:20.294Z,11.43
2018-10-06T03:57:20.277Z,11.43
2018-10-06T03:58:20.275Z,11.31
2018-10-06T03:59:20.254Z,11.29
2018-10-06T04:00:20.270Z,11.27
2018-10-06T04:01:20.234Z,11.28
2018-10-06T04:02:20.220Z,11.20
2018-10-06T04:03:20.217Z,11.28
2018-10-06T04:04:20.199Z,11.31
2018-10-06T04:05:20.211Z,11.24
2018-10-06T04:06:20.183Z,11.21
2018-10-06T04:07:20.161Z,11.17
2018-10-06T04:08:20.159Z,11.13
2018-10-06T04:09:20.141Z,11.19
2018-10-06T04:10:20.152Z,11.20
2018-10-06T04:11:20.114Z,11.21
2018-10-06T04:12:20.105Z,11.17
2018-10-06T04:13:20.101Z,11.14
2018-10-06T04:14:20.085Z,11.13
2018-10-06T04:15:20.094Z,11.09
2018-10-06T04:16:20.064Z,11.11
2018-10-06T04:17:20.043Z,11.14
2018-10-06T04:18:20.041Z,11.13
2018-10-06T04:19:20.020Z,11.10
2018-10-06T04:20:20.031Z,11.11
2018-10-06T04:21:20.006Z,11.02
2018-10-06T04:22:19.986Z,11.17
2018-10-06T04:23:19.982Z,11.16
2018-10-06T04:24:19.968Z,11.13
2018-10-06T04:25:19.973Z,11.06
2018-10-06T04:26:19.943Z,11.10
2018-10-06T04:27:19.934Z,10.96
2018-10-06T04:28:19.964Z,11.10
2018-10-06T04:29:19.903Z,11.09
2018-10-06T04:30:19.915Z,11.11
2018-10-06T04:31:19.884Z,10.96
2018-10-06T04:32:19.866Z,11.01
2018-10-06T04:33:19.863Z,10.91
2018-10-06T04:34:19.848Z,11.06
2018-10-06T04:35:19.856Z,10.95
2018-10-06T04:36:19.829Z,10.92
2018-10-06T04:37:19.808Z,10.92
2018-10-06T04:38:19.799Z,10.80
2018-10-06T04:39:19.790Z,10.81
2018-10-06T04:40:19.799Z,10.77
2018-10-06T04:41:19.767Z,10.70
2018-10-06T04:42:19.757Z,10.71
2018-10-06T04:43:19.737Z,10.70
2018-10-06T04:44:19.733Z,10.66
2018-10-06T04:45:19.739Z,10.71
2018-10-06T04:46:19.701Z,10.59
2018-10-06T04:47:19.699Z,10.62
2018-10-06T04:48:19.688Z,10.63
2018-10-06T04:49:19.665Z,10.65
2018-10-06T04:50:19.678Z,10.58
2018-10-06T04:51:19.648Z,10.55
2018-10-06T04:52:19.628Z,10.59
2018-10-06T04:53:19.657Z,10.53
2018-10-06T04:54:19.611Z,10.58
2018-10-06T04:55:19.619Z,10.58
2018-10-06T04:56:19.588Z,10.56
2018-10-06T04:57:19.574Z,10.60
2018-10-06T04:58:19.558Z,10.62
2018-10-06T04:59:19.555Z,10.52
2018-10-06T05:00:19.575Z,10.40
2018-10-06T05:01:19.528Z,10.47
2018-10-06T05:02:19.519Z,10.47
2018-10-06T05:03:19.562Z,10.55
2018-10-06T05:04:19.486Z,10.44
2018-10-06T05:05:19.505Z,10.39
2018-10-06T05:06:19.468Z,10.40
2018-10-06T05:07:19.456Z,10.32
2018-10-06T05:08:19.445Z,10.28
2018-10-06T05:09:19.426Z,10.24
2018-10-06T05:10:19.440Z,10.25
2018-10-06T05:11:19.407Z,10.26
2018-10-06T05:12:19.399Z,10.19
2018-10-06T05:13:19.379Z,10.21
2018-10-06T05:14:19.369Z,10.12
2018-10-06T05:15:19.374Z,10.09
2018-10-06T05:16:19.340Z,10.14
2018-10-06T05:17:19.333Z,10.07
2018-10-06T05:18:19.319Z,10.07
2018-10-06T05:19:19.316Z,10.15
2018-10-06T05:20:19.330Z,10.14
2018-10-06T05:21:19.287Z,10.09
2018-10-06T05:22:19.277Z,10.04
2018-10-06T05:23:19.301Z,10.24
2018-10-06T05:24:19.251Z,10.18
2018-10-06T05:25:19.266Z,10.14
2018-10-06T05:26:19.228Z,10.26
2018-10-06T05:27:19.217Z,10.22
2018-10-06T05:28:19.206Z,10.12
2018-10-06T05:29:19.192Z,10.14
2018-10-06T05:30:19.202Z,10.15
2018-10-06T05:31:19.172Z,10.17
2018-10-06T05:32:19.153Z,10.14
2018-10-06T05:33:19.140Z,10.06
2018-10-06T05:34:19.135Z,10.15
2018-10-06T05:35:19.137Z,10.18
2018-10-06T05:36:19.110Z,10.24
2018-10-06T05:37:19.095Z,10.17
2018-10-06T05:38:19.079Z,10.21
2018-10-06T05:39:19.077Z,10.24
2018-10-06T05:40:19.081Z,10.22
2018-10-06T05:41:19.049Z,10.24
2018-10-06T05:42:19.042Z,10.15
2018-10-06T05:43:19.019Z,10.18
2018-10-06T05:44:19.010Z,10.10
2018-10-06T05:45:19.024Z,10.15
2018-10-06T05:46:18.998Z,10.17
2018-10-06T05:47:18.972Z,10.18
2018-10-06T05:48:18.965Z,10.14
2018-10-06T05:49:18.950Z,10.18
2018-10-06T05:50:18.957Z,10.18
2018-10-06T05:51:18.932Z,10.17
2018-10-06T05:52:18.913Z,10.22
2018-10-06T05:53:18.904Z,10.12
2018-10-06T05:54:18.890Z,10.17
2018-10-06T05:55:18.903Z,10.15
2018-10-06T05:56:18.870Z,10.18
2018-10-06T05:57:18.855Z,10.22
2018-10-06T05:58:18.845Z,10.12
2018-10-06T05:59:18.830Z,10.22
2018-10-06T06:00:18.842Z,10.21
2018-10-06T06:01:18.806Z,10.06
2018-10-06T06:02:18.791Z,10.18
2018-10-06T06:03:18.788Z,10.17
2018-10-06T06:04:18.769Z,10.14
2018-10-06T06:05:18.784Z,10.14
2018-10-06T06:06:18.752Z,10.25
2018-10-06T06:07:18.730Z,10.22
2018-10-06T06:08:18.727Z,10.22
2018-10-06T06:09:18.760Z,10.19
2018-10-06T06:10:18.728Z,10.17
2018-10-06T06:11:18.692Z,10.36
2018-10-06T06:12:18.671Z,10.32
2018-10-06T06:13:18.668Z,10.36
2018-10-06T06:14:18.654Z,10.44
2018-10-06T06:15:18.638Z,10.44
2018-10-06T06:16:18.646Z,10.43
2018-10-06T06:17:18.619Z,10.42
2018-10-06T06:18:18.605Z,10.46
2018-10-06T06:19:18.597Z,10.53
2018-10-06T06:20:18.583Z,10.58
2018-10-06T06:21:18.600Z,10.63
2018-10-06T06:22:18.553Z,10.63
2018-10-06T06:23:18.545Z,10.60
2018-10-06T06:24:18.532Z,10.59
2018-10-06T06:25:18.516Z,10.65
2018-10-06T06:26:18.507Z,10.71
2018-10-06T06:27:18.537Z,10.78
2018-10-06T06:28:18.481Z,10.80
2018-10-06T06:29:18.471Z,11.10
2018-10-06T06:30:18.459Z,11.24
2018-10-06T06:31:18.461Z,11.35
2018-10-06T06:32:18.541Z,11.43
2018-10-06T06:33:18.454Z,11.36
2018-10-06T06:34:18.411Z,11.46
2018-10-06T06:35:18.394Z,11.38
2018-10-06T06:36:18.382Z,11.41
2018-10-06T06:37:18.373Z,11.46
2018-10-06T06:38:18.421Z,11.38
2018-10-06T06:39:18.350Z,11.34
2018-10-06T06:40:18.343Z,11.27
2018-10-06T06:41:18.323Z,11.38
2018-10-06T06:42:18.321Z,11.35
2018-10-06T06:43:18.322Z,11.47
2018-10-06T06:44:18.572Z,11.53
2018-10-06T06:45:18.422Z,11.50
2018-10-06T06:46:18.313Z,11.54
2018-10-06T06:47:18.300Z,11.64
2018-10-06T06:48:18.408Z,11.61
2018-10-06T06:49:18.239Z,11.75
2018-10-06T06:50:18.223Z,11.75
2018-10-06T06:51:18.348Z,11.71
2018-10-06T06:52:18.206Z,11.83
2018-10-06T06:53:18.338Z,12.12
2018-10-06T06:54:18.204Z,12.30
2018-10-06T06:55:18.267Z,12.34
2018-10-06T06:56:18.147Z,12.27
2018-10-06T06:57:18.144Z,12.31
2018-10-06T06:58:18.152Z,12.38
2018-10-06T06:59:18.115Z,12.78
2018-10-06T07:00:18.109Z,13.87
2018-10-06T07:01:18.090Z,14.94
2018-10-06T07:02:18.080Z,15.85
2018-10-06T07:03:18.094Z,16.53
2018-10-06T07:04:18.064Z,17.26
2018-10-06T07:05:18.042Z,17.78
2018-10-06T07:06:18.039Z,18.27
2018-10-06T07:07:15.773Z,18.31
2018-10-06T07:08:15.787Z,18.57
2018-10-06T07:09:15.743Z,18.58
2018-10-06T07:10:15.736Z,18.79
2018-10-06T07:11:15.719Z,19.05
2018-10-06T07:12:15.704Z,19.39
2018-10-06T07:13:15.723Z,19.47
2018-10-06T07:14:15.688Z,19.75
2018-10-06T07:15:15.674Z,20.00
2018-10-06T07:16:15.668Z,19.48
2018-10-06T07:17:15.655Z,19.75
2018-10-06T07:18:15.666Z,20.23
2018-10-06T07:19:15.629Z,20.34
2018-10-06T07:20:15.615Z,20.62
2018-10-06T07:21:15.606Z,20.76
2018-10-06T07:22:15.593Z,21.16
2018-10-06T07:23:15.606Z,21.17
2018-10-06T07:24:15.570Z,21.44
2018-10-06T07:25:15.613Z,21.81
2018-10-06T07:26:15.547Z,21.81
2018-10-06T07:27:15.534Z,22.16
2018-10-06T07:28:15.543Z,22.32
2018-10-06T07:33:19.286Z,23.01
2018-10-06T07:34:19.257Z,23.22
2018-10-06T07:35:19.245Z,23.09
2018-10-06T07:36:19.225Z,23.47
2018-10-06T07:37:19.223Z,23.46
2018-10-06T07:38:19.224Z,23.34
2018-10-06T07:39:19.190Z,23.68
2018-10-06T07:40:19.185Z,24.17
2018-10-06T07:41:19.168Z,24.44
2018-10-06T07:42:19.165Z,24.49
2018-10-06T07:43:19.173Z,24.63
2018-10-06T07:44:19.143Z,24.71
2018-10-06T07:45:19.123Z,24.79
2018-10-06T07:46:19.122Z,24.64
2018-10-06T07:47:19.103Z,24.53
2018-10-06T07:48:19.118Z,24.37
2018-10-06T07:49:19.086Z,24.79
2018-10-06T07:50:19.076Z,24.90
2018-10-06T07:51:19.056Z,25.07
2018-10-06T07:52:19.053Z,25.17
2018-10-06T07:53:19.061Z,25.24
2018-10-06T07:54:19.024Z,25.30
2018-10-06T07:55:19.019Z,25.59
2018-10-06T07:56:18.999Z,25.79
2018-10-06T07:57:18.991Z,26.29
2018-10-06T07:58:19.078Z,26.79
2018-10-06T07:59:19.037Z,27.23
2018-10-06T08:00:18.956Z,27.42
2018-10-06T08:01:18.981Z,27.36
2018-10-06T08:02:18.938Z,27.20
2018-10-06T08:03:18.949Z,27.14
2018-10-06T08:04:18.921Z,26.79
2018-10-06T08:05:18.906Z,27.24
2018-10-06T08:06:18.911Z,27.70
2018-10-06T08:07:18.891Z,27.35
2018-10-06T08:08:18.899Z,27.35
2018-10-06T08:09:18.862Z,27.58
2018-10-06T08:10:18.850Z,27.94
2018-10-06T08:11:18.837Z,28.17
2018-10-06T08:12:18.834Z,28.60
2018-10-06T08:13:18.820Z,28.93
2018-10-06T08:14:18.832Z,29.23
2018-10-06T08:15:18.795Z,28.78
2018-10-06T08:16:18.795Z,28.63
2018-10-06T08:17:18.767Z,28.78
2018-10-06T08:18:18.772Z,28.80
2018-10-06T08:19:18.754Z,28.56
2018-10-06T08:20:18.773Z,27.85
2018-10-06T08:21:18.733Z,28.13
2018-10-06T08:22:18.721Z,28.41
2018-10-06T08:23:18.707Z,28.66
2018-10-06T08:24:18.705Z,29.20
2018-10-06T08:25:18.679Z,29.56
2018-10-06T08:26:18.700Z,29.57
2018-10-06T08:27:18.672Z,29.37
2018-10-06T08:28:18.647Z,29.57
2018-10-06T08:29:18.645Z,29.38
2018-10-06T08:30:18.628Z,29.52
2018-10-06T08:31:18.647Z,29.92
2018-10-06T08:32:18.612Z,30.24
2018-10-06T08:33:18.603Z,29.70
2018-10-06T08:34:18.585Z,30.53
2018-10-06T08:35:18.573Z,30.62
2018-10-06T08:36:18.592Z,30.81
2018-10-06T08:37:18.554Z,30.15
2018-10-06T08:38:18.545Z,29.82
2018-10-06T08:39:18.543Z,30.12
2018-10-06T08:40:18.523Z,30.54
2018-10-06T08:41:18.547Z,30.59
2018-10-06T08:42:18.503Z,30.37
2018-10-06T08:43:18.492Z,29.40
2018-10-06T08:44:18.492Z,29.31
2018-10-06T08:45:18.467Z,29.53
2018-10-06T08:46:18.494Z,29.93
2018-10-06T08:47:18.446Z,30.26
2018-10-06T08:48:18.442Z,30.18
2018-10-06T08:49:18.425Z,29.84
2018-10-06T08:50:18.425Z,29.75
2018-10-06T08:51:18.439Z,29.49
2018-10-06T08:52:18.400Z,29.86
2018-10-06T08:53:18.392Z,30.31
2018-10-06T08:54:18.379Z,30.47
2018-10-06T08:55:18.363Z,30.56
2018-10-06T08:56:18.539Z,30.05
2018-10-06T08:57:18.348Z,30.11
2018-10-06T08:58:18.335Z,29.81
2018-10-06T08:59:18.330Z,29.38
2018-10-06T09:00:18.309Z,29.90
2018-10-06T09:01:18.322Z,29.82
2018-10-06T09:02:18.293Z,29.99
2018-10-06T09:03:18.283Z,30.26
2018-10-06T09:04:18.292Z,30.67
2018-10-06T09:05:18.260Z,30.09
2018-10-06T09:06:18.272Z,30.02
2018-10-06T09:07:18.235Z,30.37
2018-10-06T09:08:18.227Z,30.50
2018-10-06T09:09:18.220Z,30.00
2018-10-06T09:10:18.211Z,29.40
2018-10-06T09:11:18.222Z,29.63
2018-10-06T09:12:18.182Z,30.19
2018-10-06T09:13:18.177Z,30.37
2018-10-06T09:14:18.168Z,31.02
2018-10-06T09:15:18.149Z,31.27
2018-10-06T09:16:18.171Z,31.57
2018-10-06T09:17:18.137Z,30.94
2018-10-06T09:18:18.123Z,31.54
2018-10-06T09:19:18.106Z,31.80
2018-10-06T09:20:18.098Z,32.52
2018-10-06T09:21:18.153Z,32.79
2018-10-06T09:22:18.077Z,33.36
2018-10-06T09:23:18.073Z,34.00
2018-10-06T09:24:18.055Z,34.50
2018-10-06T09:25:18.048Z,34.81
2018-10-06T09:26:18.060Z,34.92
2018-10-06T09:27:18.033Z,35.10
2018-10-06T09:28:18.033Z,34.92
2018-10-06T09:29:18.006Z,33.82
2018-10-06T09:30:18.004Z,33.82
2018-10-06T09:31:18.013Z,34.02
2018-10-06T09:32:17.980Z,34.00
2018-10-06T09:33:17.973Z,33.82
2018-10-06T09:34:17.955Z,33.58
2018-10-06T09:35:17.953Z,33.34
2018-10-06T09:36:17.961Z,32.54
2018-10-06T09:37:17.924Z,32.25
2018-10-06T09:38:17.916Z,32.05
2018-10-06T09:39:17.899Z,31.85
2018-10-06T09:40:17.905Z,32.15
2018-10-06T09:41:17.905Z,32.37
2018-10-06T09:42:18.042Z,32.47
2018-10-06T09:43:17.869Z,31.99
2018-10-06T09:44:17.846Z,31.88
2018-10-06T09:45:17.941Z,31.96
2018-10-06T09:46:17.968Z,31.21
2018-10-06T09:47:17.816Z,30.76
2018-10-06T09:48:19.257Z,31.28
2018-10-06T09:49:17.795Z,31.40
2018-10-06T09:50:18.552Z,30.75
2018-10-06T09:51:17.797Z,29.99
2018-10-06T09:52:17.768Z,30.53
2018-10-06T09:53:18.196Z,30.84
2018-10-06T09:54:17.748Z,31.36
2018-10-06T09:55:17.819Z,31.24
2018-10-06T09:56:17.746Z,31.27
2018-10-06T09:57:17.718Z,31.39
2018-10-06T09:58:18.564Z,31.27
2018-10-06T09:59:17.757Z,31.67
2018-10-06T10:00:17.690Z,31.54
2018-10-06T10:01:17.698Z,31.64
2018-10-06T10:02:17.676Z,31.82
2018-10-06T10:03:17.666Z,32.33
2018-10-06T10:04:17.651Z,32.15
2018-10-06T10:05:17.664Z,32.47
2018-10-06T10:06:17.649Z,32.71
2018-10-06T10:07:18.556Z,32.73
2018-10-06T10:08:17.680Z,33.08
2018-10-06T10:09:17.609Z,33.51
2018-10-06T10:10:17.595Z,33.42
2018-10-06T10:11:17.604Z,33.31
2018-10-06T10:12:17.570Z,33.39
2018-10-06T10:13:17.557Z,33.17
2018-10-06T10:14:17.556Z,33.36
2018-10-06T10:15:17.645Z,33.80
2018-10-06T10:16:17.552Z,33.39
2018-10-06T10:17:17.731Z,33.29
2018-10-06T10:18:17.638Z,33.55
2018-10-06T10:19:17.498Z,33.64
2018-10-06T10:20:17.484Z,33.79
2018-10-06T10:21:17.494Z,33.29
2018-10-06T10:22:17.596Z,33.46
2018-10-06T10:23:17.840Z,33.65
2018-10-06T10:24:17.443Z,33.34
2018-10-06T10:25:17.435Z,33.63
2018-10-06T10:26:17.448Z,33.61
2018-10-06T10:27:17.513Z,32.99
2018-10-06T10:28:17.416Z,32.99
2018-10-06T10:29:17.390Z,32.99
2018-10-06T10:30:17.436Z,32.29
2018-10-06T10:31:17.391Z,31.57
2018-10-06T10:32:17.361Z,31.38
2018-10-06T10:33:17.346Z,30.86
2018-10-06T10:34:17.353Z,30.56
2018-10-06T10:35:17.331Z,31.20
2018-10-06T10:36:17.344Z,31.27
2018-10-06T10:37:17.345Z,31.58
2018-10-06T10:38:17.296Z,31.82
2018-10-06T10:39:17.385Z,32.20
2018-10-06T10:40:17.276Z,32.61
2018-10-06T10:41:18.210Z,32.74
2018-10-06T10:42:17.585Z,32.80
2018-10-06T10:43:17.247Z,32.73
2018-10-06T10:44:17.250Z,32.73
2018-10-06T10:45:17.227Z,33.17
2018-10-06T10:46:17.243Z,33.26
2018-10-06T10:47:17.216Z,33.33
2018-10-06T10:48:17.279Z,32.98
2018-10-06T10:49:17.197Z,33.53
2018-10-06T10:50:17.188Z,33.74
2018-10-06T10:51:17.192Z,33.01
2018-10-06T10:52:17.168Z,33.61
2018-10-06T10:53:17.149Z,34.45
2018-10-06T10:54:17.147Z,34.41
2018-10-06T10:55:17.207Z,34.66
2018-10-06T10:56:17.142Z,34.74
2018-10-06T10:57:17.110Z,35.01
2018-10-06T10:58:17.105Z,34.70
2018-10-06T10:59:17.088Z,34.81
2018-10-06T11:00:17.218Z,34.31
2018-10-06T11:01:17.185Z,34.04
2018-10-06T11:02:17.060Z,34.11
2018-10-06T11:03:17.051Z,34.35
2018-10-06T11:04:17.038Z,34.56
2018-10-06T11:05:17.025Z,34.05
2018-10-06T11:06:17.046Z,33.55
2018-10-06T11:07:17.009Z,33.23
2018-10-06T11:08:17.001Z,33.13
2018-10-06T11:09:16.996Z,33.64
2018-10-06T11:10:16.974Z,34.02
2018-10-06T11:11:17.037Z,33.78
2018-10-06T11:12:16.955Z,34.16
2018-10-06T11:13:16.948Z,34.34
2018-10-06T11:14:16.941Z,34.53
2018-10-06T11:15:16.927Z,35.03
2018-10-06T11:16:16.926Z,34.73
2018-10-06T11:17:17.004Z,34.50
2018-10-06T11:18:16.898Z,34.20
2018-10-06T11:19:16.889Z,34.19
2018-10-06T11:20:16.887Z,33.64
2018-10-06T11:21:16.875Z,34.07
2018-10-06T11:22:16.918Z,34.11
2018-10-06T11:23:16.851Z,33.78
2018-10-06T11:24:16.954Z,33.13
2018-10-06T11:25:16.960Z,33.29
2018-10-06T11:26:16.854Z,33.13
2018-10-06T11:27:16.810Z,33.39
2018-10-06T11:28:16.804Z,33.98
2018-10-06T11:29:16.791Z,34.31
2018-10-06T11:30:16.777Z,34.05
2018-10-06T11:31:16.774Z,33.45
2018-10-06T11:32:16.775Z,33.04
2018-10-06T11:33:16.750Z,33.19
2018-10-06T11:34:16.739Z,33.68
2018-10-06T11:35:16.725Z,34.05
2018-10-06T11:36:16.717Z,34.20
2018-10-06T11:37:16.767Z,34.26
2018-10-06T11:38:16.890Z,34.14
2018-10-06T11:39:16.801Z,34.13
2018-10-06T11:40:16.701Z,34.04
2018-10-06T11:41:16.824Z,34.07
2018-10-06T11:42:16.768Z,33.46
2018-10-06T11:43:16.650Z,32.81
2018-10-06T11:44:16.641Z,32.84
2018-10-06T11:45:16.614Z,33.33
2018-10-06T11:46:16.612Z,33.01
2018-10-06T11:47:16.622Z,32.92
2018-10-06T11:48:16.591Z,32.80
2018-10-06T11:49:16.583Z,32.70
2018-10-06T11:50:16.657Z,33.01
2018-10-06T11:51:16.559Z,32.93
2018-10-06T11:52:16.568Z,32.98
2018-10-06T11:53:16.533Z,33.23
2018-10-06T11:54:16.531Z,32.62
2018-10-06T11:55:16.516Z,32.52
2018-10-06T11:56:16.509Z,32.18
2018-10-06T11:57:16.521Z,32.43
2018-10-06T11:58:16.480Z,32.77
2018-10-06T11:59:16.492Z,33.10
2018-10-06T12:00:16.794Z,33.04
2018-10-06T12:01:16.456Z,33.17
2018-10-06T12:02:16.464Z,32.99
2018-10-06T12:03:16.431Z,33.04
2018-10-06T12:04:16.418Z,33.34
2018-10-06T12:05:16.404Z,33.41
2018-10-06T12:06:16.422Z,33.60
2018-10-06T12:07:16.387Z,34.08
2018-10-06T12:08:16.379Z,34.14
2018-10-06T12:09:16.365Z,34.07
2018-10-06T12:10:16.359Z,33.87
2018-10-06T12:11:16.349Z,33.37
2018-10-06T12:12:16.356Z,33.13
2018-10-06T12:13:16.325Z,33.01
2018-10-06T12:14:16.314Z,33.15
2018-10-06T12:15:16.300Z,33.39
2018-10-06T12:16:16.296Z,33.33
2018-10-06T12:17:16.306Z,33.71
2018-10-06T12:18:16.273Z,33.79
2018-10-06T12:19:16.259Z,33.39
2018-10-06T12:20:16.247Z,33.41
2018-10-06T12:21:16.239Z,32.98
2018-10-06T12:22:16.247Z,33.30
2018-10-06T12:23:16.221Z,33.27
2018-10-06T12:24:16.209Z,33.27
2018-10-06T12:25:16.198Z,33.06
2018-10-06T12:26:16.184Z,33.17
2018-10-06T12:27:16.195Z,33.41
2018-10-06T12:28:16.171Z,33.31
2018-10-06T12:29:16.152Z,32.54
2018-10-06T12:30:16.144Z,32.51
2018-10-06T12:31:16.131Z,32.11
2018-10-06T12:32:16.139Z,32.27
2018-10-06T12:33:16.109Z,32.49
2018-10-06T12:34:16.103Z,32.89
2018-10-06T12:35:16.164Z,32.77
2018-10-06T12:36:16.079Z,32.67
2018-10-06T12:37:16.093Z,32.88
2018-10-06T12:38:16.063Z,33.03
2018-10-06T12:39:16.046Z,33.14
2018-10-06T12:40:16.039Z,32.99
2018-10-06T12:41:16.032Z,33.26
2018-10-06T12:42:16.081Z,33.45
2018-10-06T12:43:16.007Z,32.93
2018-10-06T12:44:15.995Z,32.99
2018-10-06T12:45:15.981Z,33.53
2018-10-06T12:46:15.982Z,33.41
2018-10-06T12:47:15.982Z,33.31
2018-10-06T12:48:15.952Z,33.17
2018-10-06T12:49:15.945Z,33.41
2018-10-06T12:50:15.931Z,33.68
2018-10-06T12:51:15.988Z,34.08
2018-10-06T12:52:15.928Z,33.80
2018-10-06T12:53:15.899Z,33.67
2018-10-06T12:54:15.890Z,33.10
2018-10-06T12:55:15.882Z,32.49
2018-10-06T12:56:15.868Z,32.61